Shiquanhe, China
Current Conditions -  °F | °C
As of 10:00 AM on Saturday 20 Dec 2014 (Local Time) from VIAR Reporting Station
Moderate Fog Moderate Fog  
Wind Chill: 43°   Ceiling: Unl
Heat Index: 43°   Visibility: 0.18mi
Dew Point: 43°   Wind: 0mph
Humidity: 100%   Direction: NA
Pressure: 30.18"   Gusts: NA
Location:  32.5°N, 80.08°E
Report Text: VIAR 200200Z 00000KT 0300 R34/1500 FG VV/// 06/06 Q1022
Loading
Personal Weather Stations






























Interactive Weather Map New forecast layout! Learn more

10-Day Weather Forecast

Advertisements
Track Severe Weather on mobile